Saline County Regional Airport
KSUZ : now visible

Airfield :











YOU CAN JOIN US ON...

 
LOGIN :

Register | Disclaimer

   EN    FR    IT 

 









Legend :    VFR   Marginal VFR   IFR   Intensive IFR   Very Intensive IFR
Visi :
Ceiling :
>= 8 km
>= 3000ft
5 to 8 km
1000 to 3000 ft
1500m to 5 km
500 to 1000 ft
800 to 1500m
200 to 500 ft
< 800m
< 200 ft
Symbols :   Thunderstorms  Fog  Heavy snow  Heavy precipitations  Wind > 20 kt







- Airport Elevation : 390 ft


KSUZ - Saline County Regional

CURRENT METAR :
  • 220115Z AUTO 00000KT 10SM CLR 24/20 A3007 RMK A01

EXPIRED METARs :
  • 220055Z AUTO 00000KT 10SM CLR 25/20 A3007 RMK A01
  • 220035Z AUTO 00000KT 10SM CLR 27/19 A3006 RMK A01
  • 220015Z AUTO 14004KT 10SM CLR 28/19 A3006 RMK A01
  • 212355Z AUTO 14005KT 10SM CLR 29/19 A3006 RMK A01
  • 212335Z AUTO 14004KT 10SM CLR 30/18 A3006 RMK A01
  • 212255Z AUTO 16009KT 10SM CLR 31/17 A3007 RMK A01
  • 212235Z AUTO 14008KT 10SM CLR 31/18 A3007 RMK A01

TAF N/A
No reported NOTAMs for that airfield.



MET'MAP, your aeronautical weather chart ! - Copyright ORBIFLY December 2007 - Disclaimer

ORBIFLY MET'MAP TEAM :

Programming & Development : Alexandra Zaïnal
Concept & Development : Baudouin d'Aumeries
Co-Development & Prog : Marc-Olivier Méhu
Technical & hardware support : Manuel Goepfert

Contact : metmap@orbifly.com




SOURCES & CREDITS :

   NOAA       Earth
Advisory